Time;durP1;ratioP1;P1;durP2;ratioP2;P2;SDS_P1;SDS_P2;PMS_P1;PMS_P2;Temp;Humidity;BMP_temperature;BMP_pressure;BME280_temperature;BME280_humidity;BME280_pressure;Samples;Min_cycle;Max_cycle;Signal;HPM_P1;HPM_P2
2021/12/27 00:01:12;;;;;;;13.23;7.97;;;;;;;2.30;86.67;95111.73;1777898;81;21452;-61
2021/12/27 00:03:39;;;;;;;14.40;8.63;;;;;;;2.16;86.33;95117.70;1778367;81;20974;-61
2021/12/27 00:06:09;;;;;;;12.37;7.17;;;;;;;2.10;86.52;95120.28;1777746;81;21006;-61
2021/12/27 00:08:34;;;;;;;13.50;7.90;;;;;;;2.05;86.52;95118.09;1777865;81;21024;-61
2021/12/27 00:11:01;;;;;;;14.53;7.97;;;;;;;1.97;86.57;95118.47;1777982;81;21042;-61
2021/12/27 00:13:29;;;;;;;15.13;8.63;;;;;;;1.91;86.79;95117.97;1778027;81;21025;-61
2021/12/27 00:15:56;;;;;;;15.50;8.43;;;;;;;1.87;86.95;95124.47;1778010;80;21002;-61
2021/12/27 00:18:23;;;;;;;15.53;8.27;;;;;;;1.87;87.21;95117.53;1777957;81;21520;-61
2021/12/27 00:20:49;;;;;;;14.83;8.43;;;;;;;1.88;87.38;95119.27;1778077;81;21534;-61
2021/12/27 00:23:15;;;;;;;17.93;8.97;;;;;;;1.85;87.25;95114.48;1778203;81;21021;-61
2021/12/27 00:25:42;;;;;;;16.90;9.47;;;;;;;1.84;87.29;95105.81;1777991;81;22528;-60
2021/12/27 00:28:09;;;;;;;15.93;8.70;;;;;;;1.86;87.44;95107.97;1778104;80;21519;-61
2021/12/27 00:30:38;;;;;;;18.03;9.40;;;;;;;1.84;87.35;95109.72;1778114;81;21017;-61
2021/12/27 00:33:05;;;;;;;17.37;8.77;;;;;;;1.79;87.19;95103.61;1778138;81;21002;-61
2021/12/27 00:35:32;;;;;;;13.47;8.07;;;;;;;1.79;87.27;95108.81;1777886;81;21050;-61
2021/12/27 00:37:59;;;;;;;14.97;8.70;;;;;;;1.77;87.26;95106.63;1778012;81;20982;-61
2021/12/27 00:40:26;;;;;;;17.37;9.50;;;;;;;1.73;87.31;95104.41;1777726;81;21014;-61
2021/12/27 00:42:53;;;;;;;18.20;10.13;;;;;;;1.66;87.72;95102.66;1778038;81;20973;-61
2021/12/27 00:45:20;;;;;;;16.83;9.70;;;;;;;1.66;88.18;95100.45;1778070;81;20966;-61
2021/12/27 00:47:48;;;;;;;15.97;9.20;;;;;;;1.69;88.50;95100.06;1778493;80;21053;-61
2021/12/27 00:50:15;;;;;;;21.77;11.13;;;;;;;1.72;88.61;95106.58;1777825;81;21049;-61
2021/12/27 00:52:42;;;;;;;18.90;10.43;;;;;;;1.68;88.18;95108.70;1778102;81;21432;-61
2021/12/27 00:55:12;;;;;;;20.00;10.63;;;;;;;1.73;88.64;95110.05;1777713;80;20990;-61
2021/12/27 00:57:39;;;;;;;16.87;9.53;;;;;;;1.83;88.96;95114.45;1777783;81;20994;-61
2021/12/27 01:00:11;;;;;;;19.13;9.70;;;;;;;1.88;88.69;95117.96;1777941;81;20970;-61
2021/12/27 01:02:39;;;;;;;17.13;9.03;;;;;;;1.87;88.64;95112.33;1777475;81;21034;-62
2021/12/27 01:05:07;;;;;;;16.57;9.23;;;;;;;1.87;88.61;95117.53;1777922;81;21013;-61
2021/12/27 01:07:35;;;;;;;19.87;10.47;;;;;;;1.88;88.78;95115.80;1778048;81;21017;-62
2021/12/27 01:10:32;;;;;;;17.00;9.10;;;;;;;1.94;88.96;95118.42;1778094;81;21476;-61
2021/12/27 01:12:50;;;;;;;17.37;9.23;;;;;;;1.98;88.81;95115.44;1774058;81;21018;-62
2021/12/27 01:17:46;;;;;;;16.53;7.83;;;;;;;2.01;88.84;95112.41;1777980;81;21472;-61
2021/12/27 01:20:17;;;;;;;18.53;9.27;;;;;;;1.98;88.27;95112.39;1777971;81;21128;-61
2021/12/27 01:22:44;;;;;;;16.67;8.53;;;;;;;1.98;88.29;95110.23;1777988;81;21044;-61
2021/12/27 01:25:12;;;;;;;13.50;7.37;;;;;;;1.97;88.12;95108.50;1777860;81;20997;-62
2021/12/27 01:27:40;;;;;;;10.57;6.50;;;;;;;1.94;87.97;95108.02;1777948;81;20962;-61
2021/12/27 01:30:12;;;;;;;11.77;6.93;;;;;;;1.88;87.92;95110.59;1777924;81;21022;-61
2021/12/27 01:32:47;;;;;;;11.83;6.77;;;;;;;1.87;87.87;95108.86;1778097;81;20954;-61
2021/12/27 01:35:10;;;;;;;13.17;6.93;;;;;;;1.89;88.13;95111.02;1752031;81;21054;-61
2021/12/27 01:37:37;;;;;;;15.03;6.77;;;;;;;1.89;87.99;95104.11;1778035;81;20998;-61
2021/12/27 01:40:06;;;;;;;15.07;7.20;;;;;;;1.84;87.80;95108.41;1777983;81;21484;-61
2021/12/27 01:42:32;;;;;;;15.10;7.93;;;;;;;1.81;87.65;95101.86;1777853;81;21038;-61
2021/12/27 01:44:59;;;;;;;14.97;7.93;;;;;;;1.73;87.69;95095.74;1778005;81;20993;-61
2021/12/27 01:47:28;;;;;;;18.30;7.70;;;;;;;1.68;88.01;95097.00;1777993;81;21428;-61
2021/12/27 01:49:54;;;;;;;16.43;7.80;;;;;;;1.75;88.50;95099.67;1778008;81;21029;-62
2021/12/27 01:52:21;;;;;;;18.50;8.83;;;;;;;1.72;88.39;95099.22;1777684;81;21020;-61
2021/12/27 01:54:52;;;;;;;15.23;8.00;;;;;;;1.63;88.60;95100.00;1774300;79;20987;-61
2021/12/27 01:57:19;;;;;;;17.90;8.30;;;;;;;1.64;88.76;95100.90;1772398;81;20971;-61
2021/12/27 01:59:46;;;;;;;17.17;8.50;;;;;;;1.69;89.12;95110.47;1772361;81;21104;-61
2021/12/27 02:02:13;;;;;;;22.23;10.27;;;;;;;1.72;88.94;95106.58;1772323;81;21030;-61
2021/12/27 02:04:39;;;;;;;22.80;10.57;;;;;;;1.70;88.76;95096.59;1744371;81;21002;-61
2021/12/27 02:07:06;;;;;;;21.73;10.23;;;;;;;1.77;89.04;95102.72;1772404;81;20998;-61
2021/12/27 02:09:44;;;;;;;24.57;10.53;;;;;;;1.84;89.24;95098.41;1772319;81;21002;-61
2021/12/27 02:12:01;;;;;;;30.60;12.67;;;;;;;1.85;88.99;95101.47;1770174;81;20962;-61
2021/12/27 02:14:28;;;;;;;33.70;13.20;;;;;;;1.84;88.87;95103.21;1772474;81;20994;-61
2021/12/27 02:16:54;;;;;;;32.00;12.13;;;;;;;1.75;88.73;95100.97;1772206;81;21567;-61
2021/12/27 02:19:21;;;;;;;29.40;11.47;;;;;;;1.73;88.86;95097.91;1772554;81;20986;-61
2021/12/27 02:21:47;;;;;;;24.90;10.40;;;;;;;1.78;89.07;95091.87;1772218;81;21021;-61
2021/12/27 02:24:14;;;;;;;24.37;9.97;;;;;;;1.83;89.13;95090.18;1772304;81;21503;-61
2021/12/27 02:26:40;;;;;;;33.57;11.53;;;;;;;1.87;89.10;95088.05;1744083;81;21001;-61
2021/12/27 02:29:09;;;;;;;32.00;11.20;;;;;;;1.84;88.74;95090.20;1772081;81;21504;-61
2021/12/27 02:31:39;;;;;;;31.97;11.67;;;;;;;1.84;88.97;95084.11;1772330;81;21047;-61
2021/12/27 02:34:05;;;;;;;24.90;10.03;;;;;;;1.80;88.97;95080.62;1772117;81;21527;-61
2021/12/27 02:36:31;;;;;;;23.97;9.17;;;;;;;1.82;89.03;95088.45;1772566;81;21497;-61
2021/12/27 02:38:58;;;;;;;19.53;8.77;;;;;;;1.85;89.19;95089.33;1772448;81;21002;-61
2021/12/27 02:41:24;;;;;;;18.57;7.90;;;;;;;1.92;89.15;95086.35;1772537;81;21007;-61
2021/12/27 02:43:51;;;;;;;17.83;8.07;;;;;;;1.97;89.22;95080.74;1772496;81;20990;-61
2021/12/27 02:46:17;;;;;;;14.83;7.03;;;;;;;1.99;88.88;95079.03;1772095;81;21077;-61
2021/12/27 02:48:48;;;;;;;14.60;7.40;;;;;;;1.91;88.25;95078.95;1772383;81;21017;-61
2021/12/27 02:51:18;;;;;;;15.83;7.40;;;;;;;1.89;88.27;95074.59;1772461;81;21508;-61
2021/12/27 02:53:48;;;;;;;13.93;6.70;;;;;;;1.79;88.05;95077.59;1771838;80;21092;-61
2021/12/27 02:56:17;;;;;;;14.67;7.40;;;;;;;1.65;88.20;95092.22;1774835;80;21113;-61
2021/12/27 02:58:44;;;;;;;17.07;7.50;;;;;;;1.63;88.55;95090.03;1777985;81;21028;-62
2021/12/27 03:01:16;;;;;;;16.47;7.37;;;;;;;1.55;88.75;95081.31;1777918;81;21512;-61
2021/12/27 03:03:42;;;;;;;15.30;7.27;;;;;;;1.55;88.68;95085.22;1778233;81;20998;-61
2021/12/27 03:06:10;;;;;;;14.23;6.97;;;;;;;1.48;88.38;95081.69;1778213;81;21475;-61
2021/12/27 03:08:39;;;;;;;13.33;6.43;;;;;;;1.51;88.64;95080.40;1778036;81;21017;-61
2021/12/27 03:11:07;;;;;;;12.50;6.73;;;;;;;1.51;88.73;95076.50;1777963;81;20998;-61
2021/12/27 03:13:37;;;;;;;17.20;6.77;;;;;;;1.55;89.03;95073.08;1777970;81;21499;-61
2021/12/27 03:16:14;;;;;;;12.97;6.43;;;;;;;1.57;88.93;95077.00;1777798;81;21018;-62
2021/12/27 03:18:49;;;;;;;14.07;6.80;;;;;;;1.65;89.22;95079.22;1778178;81;20986;-62
2021/12/27 03:21:16;;;;;;;12.10;6.50;;;;;;;1.68;88.98;95081.41;1778112;81;21515;-62
2021/12/27 03:23:44;;;;;;;14.20;6.57;;;;;;;1.65;88.76;95077.48;1777900;81;21066;-62
2021/12/27 03:26:11;;;;;;;14.83;7.10;;;;;;;1.64;88.76;95078.80;1751797;81;21006;-61
2021/12/27 03:28:40;;;;;;;11.63;6.23;;;;;;;1.68;88.83;95082.70;1777984;81;21045;-62
2021/12/27 03:31:08;;;;;;;10.93;5.30;;;;;;;1.73;88.99;95087.50;1778061;81;21496;-62
2021/12/27 03:33:35;;;;;;;13.27;6.33;;;;;;;1.69;88.57;95084.89;1778007;81;21006;-62
2021/12/27 03:36:05;;;;;;;12.67;6.57;;;;;;;1.66;88.58;95087.05;1778148;81;21516;-62
2021/12/27 03:38:40;;;;;;;11.87;6.00;;;;;;;1.67;88.59;95081.41;1778114;81;20991;-62
2021/12/27 03:41:15;;;;;;;10.83;5.90;;;;;;;1.68;88.62;95080.09;1777326;81;21022;-61
2021/12/27 03:43:42;;;;;;;12.10;5.87;;;;;;;1.73;88.56;95075.80;1776813;81;21003;-61
2021/12/27 03:46:09;;;;;;;11.70;6.13;;;;;;;1.73;88.32;95079.70;1777931;81;20990;-61
2021/12/27 03:48:36;;;;;;;11.43;5.90;;;;;;;1.64;88.03;95078.36;1777991;81;21017;-61
2021/12/27 03:51:05;;;;;;;12.07;5.97;;;;;;;1.62;88.37;95077.91;1778028;81;21013;-61
2021/12/27 03:53:31;;;;;;;12.67;6.30;;;;;;;1.70;88.90;95074.92;1777969;81;21538;-61
2021/12/27 03:55:59;;;;;;;13.60;6.77;;;;;;;1.70;88.52;95077.52;1777982;81;21584;-61
2021/12/27 03:58:45;;;;;;;11.40;5.93;;;;;;;1.70;88.54;95068.42;1777953;81;20982;-61
2021/12/27 04:01:15;;;;;;;13.50;7.00;;;;;;;1.63;88.14;95077.90;1775302;81;21065;-61
2021/12/27 04:03:45;;;;;;;15.47;7.70;;;;;;;1.60;88.30;95080.92;1778511;80;20986;-61
2021/12/27 04:06:14;;;;;;;15.83;8.10;;;;;;;1.57;88.34;95078.30;1777400;81;21010;-61
2021/12/27 04:08:41;;;;;;;16.03;7.87;;;;;;;1.58;88.70;95070.49;1778140;80;21507;-60
2021/12/27 04:11:07;;;;;;;15.00;8.17;;;;;;;1.65;88.81;95077.48;1777964;81;21523;-61
2021/12/27 04:13:34;;;;;;;15.67;7.23;;;;;;;1.73;88.92;95077.10;1777934;81;21049;-61
2021/12/27 04:16:01;;;;;;;14.93;7.73;;;;;;;1.81;88.88;95076.29;1778212;81;20982;-61
2021/12/27 04:18:27;;;;;;;14.63;7.23;;;;;;;1.79;88.51;95072.39;1778002;81;20962;-61
2021/12/27 04:20:54;;;;;;;13.90;7.20;;;;;;;1.70;87.92;95067.98;1777964;81;21053;-61
2021/12/27 04:23:21;;;;;;;14.00;6.90;;;;;;;1.70;88.39;95064.52;1777723;81;21021;-61
2021/12/27 04:25:48;;;;;;;15.83;7.33;;;;;;;1.74;88.58;95066.30;1778203;81;21459;-60
2021/12/27 04:28:15;;;;;;;15.33;7.17;;;;;;;1.66;88.32;95064.05;1777933;81;21026;-61
2021/12/27 04:30:42;;;;;;;16.73;7.63;;;;;;;1.59;88.45;95064.45;1778004;81;20990;-61
2021/12/27 04:33:08;;;;;;;17.47;8.50;;;;;;;1.54;88.42;95054.45;1778052;81;20963;-61
2021/12/27 04:35:36;;;;;;;15.07;7.30;;;;;;;1.50;88.49;95057.88;1777643;81;21045;-61
2021/12/27 04:38:03;;;;;;;20.33;9.27;;;;;;;1.40;88.79;95058.23;1778105;81;20978;-61
2021/12/27 04:40:34;;;;;;;20.93;10.63;;;;;;;1.33;88.78;95058.16;1778052;81;21006;-61
2021/12/27 04:43:06;;;;;;;22.57;12.10;;;;;;;1.30;88.75;95057.71;1777923;81;20993;-61
2021/12/27 04:45:33;;;;;;;17.57;10.03;;;;;;;1.29;88.86;95051.66;1778409;81;21014;-60
2021/12/27 04:48:01;;;;;;;15.47;7.90;;;;;;;1.27;88.84;95053.36;1777841;81;21061;-61
2021/12/27 04:50:30;;;;;;;18.20;9.00;;;;;;;1.28;88.90;95052.92;1777957;81;21492;-61
2021/12/27 04:52:56;;;;;;;13.13;7.07;;;;;;;1.27;89.14;95049.90;1778058;81;21033;-61
2021/12/27 04:55:25;;;;;;;13.87;6.63;;;;;;;1.28;89.26;95056.83;1778063;81;20974;-60
2021/12/27 04:57:53;;;;;;;13.93;6.83;;;;;;;1.30;89.44;95053.81;1783880;79;21020;-61
2021/12/27 05:00:21;;;;;;;10.97;6.00;;;;;;;1.30;89.46;95050.78;1789595;80;21004;-61
2021/12/27 05:02:47;;;;;;;10.83;6.50;;;;;;;1.33;89.47;95051.67;1789205;80;20993;-61
2021/12/27 05:05:14;;;;;;;12.07;7.10;;;;;;;1.35;89.45;95057.75;1789417;80;21033;-61
2021/12/27 05:07:41;;;;;;;9.90;5.83;;;;;;;1.31;89.36;95050.38;1789331;80;21506;-61
2021/12/27 05:10:07;;;;;;;10.53;5.90;;;;;;;1.26;89.43;95052.94;1789264;80;21045;-62
2021/12/27 05:12:34;;;;;;;11.10;6.87;;;;;;;1.22;89.53;95052.45;1789215;80;21573;-61
2021/12/27 05:15:03;;;;;;;9.90;6.20;;;;;;;1.25;89.61;95049.88;1789502;80;21024;-61
2021/12/27 05:17:30;;;;;;;9.70;6.07;;;;;;;1.28;89.49;95052.48;1789385;80;21018;-61
2021/12/27 05:19:57;;;;;;;9.43;6.17;;;;;;;1.28;89.42;95049.03;1789502;80;21004;-61
2021/12/27 05:22:24;;;;;;;10.73;6.57;;;;;;;1.27;89.52;95046.86;1789098;80;21112;-61
2021/12/27 05:24:51;;;;;;;38.00;17.83;;;;;;;1.26;89.51;95049.03;1789624;80;21436;-61
2021/12/27 05:27:18;;;;;;;33.23;17.77;;;;;;;1.25;89.50;95052.91;1789334;80;20990;-61
2021/12/27 05:29:46;;;;;;;36.77;18.67;;;;;;;1.16;89.53;95048.92;1788984;80;21026;-60
2021/12/27 05:32:12;;;;;;;40.37;22.40;;;;;;;1.09;90.03;95048.02;1789528;80;20966;-61
2021/12/27 05:34:39;;;;;;;32.17;19.20;;;;;;;1.11;90.02;95048.01;1789348;80;20997;-61
2021/12/27 05:37:06;;;;;;;30.80;17.23;;;;;;;1.14;90.21;95051.95;1788925;80;21055;-61
2021/12/27 05:39:33;;;;;;;40.77;20.30;;;;;;;1.13;90.37;95050.20;1789335;80;21028;-61
2021/12/27 05:42:00;;;;;;;89.87;39.90;;;;;;;1.13;90.31;95052.36;1789452;80;20974;-61
2021/12/27 05:44:27;;;;;;;29.77;13.33;;;;;;;1.15;90.45;95050.66;1789127;80;21464;-61
2021/12/27 05:46:57;;;;;;;18.93;9.97;;;;;;;1.10;90.47;95054.94;1789306;80;21554;-61
2021/12/27 05:49:24;;;;;;;13.50;7.30;;;;;;;1.12;90.43;95048.03;1789406;80;21009;-61
2021/12/27 05:51:52;;;;;;;21.67;10.10;;;;;;;1.15;90.34;95051.09;1789090;80;21006;-61
2021/12/27 05:54:23;;;;;;;25.53;12.00;;;;;;;1.22;90.54;95043.80;1789332;80;20946;-61
2021/12/27 05:56:50;;;;;;;16.43;7.97;;;;;;;1.30;90.55;95046.88;1789273;80;20994;-62
2021/12/27 05:59:17;;;;;;;17.30;8.23;;;;;;;1.32;90.27;95046.91;1777843;80;21005;-62
2021/12/27 06:01:45;;;;;;;16.00;7.67;;;;;;;1.30;90.07;95042.12;1777956;81;21021;-61
2021/12/27 06:04:12;;;;;;;19.33;9.23;;;;;;;1.38;90.29;95040.44;1778124;80;21009;-62
2021/12/27 06:06:38;;;;;;;23.23;10.70;;;;;;;1.43;90.26;95042.64;1777913;81;21014;-61
2021/12/27 06:09:06;;;;;;;18.87;7.93;;;;;;;1.43;89.98;95045.68;1777969;81;21483;-61
2021/12/27 06:11:33;;;;;;;15.50;7.70;;;;;;;1.39;89.82;95042.64;1778065;81;21010;-61
2021/12/27 06:13:59;;;;;;;11.43;6.50;;;;;;;1.36;89.79;95045.19;1777621;81;21073;-61
2021/12/27 06:16:26;;;;;;;11.27;6.13;;;;;;;1.37;89.76;95046.95;1778209;81;21021;-61
2021/12/27 06:18:52;;;;;;;11.73;5.90;;;;;;;1.38;89.79;95046.94;1778297;81;20982;-61
2021/12/27 06:21:19;;;;;;;15.10;7.03;;;;;;;1.42;89.82;95044.81;1778139;81;20986;-61
2021/12/27 06:23:46;;;;;;;14.97;7.77;;;;;;;1.44;89.86;95047.01;1778208;81;20998;-61
2021/12/27 06:26:12;;;;;;;16.67;7.43;;;;;;;1.36;89.71;95043.89;1778291;81;20994;-62
2021/12/27 06:28:39;;;;;;;13.77;7.03;;;;;;;1.36;89.76;95048.69;1777706;81;21094;-61
2021/12/27 06:31:06;;;;;;;14.43;7.43;;;;;;;1.38;89.81;95052.14;1778228;81;21001;-61
2021/12/27 06:33:33;;;;;;;15.40;7.77;;;;;;;1.42;89.88;95052.61;1778260;81;20966;-61
2021/12/27 06:36:00;;;;;;;14.27;7.37;;;;;;;1.40;89.42;95055.63;1778221;81;20985;-61
2021/12/27 06:38:27;;;;;;;14.67;7.87;;;;;;;1.38;89.39;95050.84;1778250;81;20982;-61
2021/12/27 06:40:55;;;;;;;13.07;7.90;;;;;;;1.35;89.24;95054.72;1778094;81;20978;-61
2021/12/27 06:43:22;;;;;;;13.50;7.80;;;;;;;1.38;89.47;95051.28;1778067;81;21021;-61
2021/12/27 06:45:48;;;;;;;15.00;7.50;;;;;;;1.40;89.35;95056.06;1778171;81;20978;-61
2021/12/27 06:48:15;;;;;;;14.83;7.63;;;;;;;1.40;89.17;95058.66;1778048;81;21054;-61
2021/12/27 06:50:42;;;;;;;17.83;8.40;;;;;;;1.38;89.16;95059.08;1778004;81;21524;-61
2021/12/27 06:53:09;;;;;;;16.27;7.97;;;;;;;1.36;89.07;95055.59;1777821;81;21010;-61
2021/12/27 06:55:35;;;;;;;12.67;6.87;;;;;;;1.39;89.24;95055.63;1778095;81;21005;-61
2021/12/27 06:58:02;;;;;;;15.00;7.97;;;;;;;1.46;89.42;95055.69;1781659;80;20985;-61
2021/12/27 07:00:29;;;;;;;16.60;8.60;;;;;;;1.51;89.28;95062.20;1789364;80;20993;-61
2021/12/27 07:02:55;;;;;;;17.50;8.73;;;;;;;1.56;89.49;95056.60;1789562;80;21012;-61
2021/12/27 07:05:22;;;;;;;18.00;8.73;;;;;;;1.65;89.75;95051.92;1789409;80;21048;-61
2021/12/27 07:07:48;;;;;;;20.43;10.50;;;;;;;1.70;89.40;95058.88;1789596;80;21025;-61
2021/12/27 07:10:17;;;;;;;19.30;11.87;;;;;;;1.71;89.08;95063.24;1789372;80;20969;-61
2021/12/27 07:12:43;;;;;;;21.60;11.77;;;;;;;1.69;88.87;95064.95;1789370;80;21002;-61
2021/12/27 07:15:10;;;;;;;55.70;27.37;;;;;;;1.70;88.51;95059.32;1789578;80;20990;-61
2021/12/27 07:17:38;;;;;;;43.20;22.77;;;;;;;1.60;88.20;95064.02;1789635;80;21439;-61
2021/12/27 07:20:06;;;;;;;37.00;18.63;;;;;;;1.60;88.40;95066.62;1789437;80;21068;-62
2021/12/27 07:22:35;;;;;;;36.40;20.13;;;;;;;1.61;88.53;95057.94;1789286;80;21358;-61
2021/12/27 07:25:02;;;;;;;30.63;16.33;;;;;;;1.64;88.64;95065.36;1789387;80;21459;-61
2021/12/27 07:27:29;;;;;;;23.53;14.00;;;;;;;1.66;88.64;95062.75;1789425;80;21052;-62
2021/12/27 07:29:56;;;;;;;23.80;13.43;;;;;;;1.64;88.21;95064.49;1789147;80;20989;-61
2021/12/27 07:32:23;;;;;;;31.77;15.93;;;;;;;1.64;88.33;95064.49;1789172;80;21584;-61
2021/12/27 07:34:50;;;;;;;24.37;13.93;;;;;;;1.62;88.26;95054.06;1789555;80;20975;-61
2021/12/27 07:37:17;;;;;;;24.17;13.97;;;;;;;1.59;88.03;95055.75;1788917;80;21045;-61
2021/12/27 07:39:44;;;;;;;31.80;14.40;;;;;;;1.58;88.03;95056.63;1789383;80;20996;-61
2021/12/27 07:42:11;;;;;;;30.37;17.03;;;;;;;1.57;88.32;95059.66;1789046;80;21065;-61
2021/12/27 07:44:38;;;;;;;27.30;14.97;;;;;;;1.60;88.48;95058.81;1789224;80;21526;-61
2021/12/27 07:47:05;;;;;;;26.83;13.67;;;;;;;1.65;88.75;95055.81;1789654;80;21044;-61
2021/12/27 07:49:32;;;;;;;22.97;13.33;;;;;;;1.70;88.66;95051.52;1789338;80;20977;-61
2021/12/27 07:51:59;;;;;;;15.97;9.63;;;;;;;1.76;88.72;95053.28;1789251;80;20998;-62
2021/12/27 07:54:25;;;;;;;17.10;9.40;;;;;;;1.80;88.79;95053.31;1789473;80;21494;-62
2021/12/27 07:56:52;;;;;;;16.83;9.30;;;;;;;1.79;88.44;95053.30;1789556;80;21493;-61
2021/12/27 07:59:19;;;;;;;13.87;7.93;;;;;;;1.79;88.56;95055.89;1789058;80;21009;-61
2021/12/27 08:01:45;;;;;;;14.90;8.30;;;;;;;1.75;88.28;95054.16;1789190;80;21001;-61
2021/12/27 08:04:12;;;;;;;21.27;10.37;;;;;;;1.70;88.22;95047.18;1789054;80;21040;-62
2021/12/27 08:06:38;;;;;;;26.67;12.93;;;;;;;1.68;88.09;95050.19;1789362;80;20989;-61
2021/12/27 08:09:07;;;;;;;48.70;23.67;;;;;;;1.54;88.20;95045.75;1789394;80;21551;-61
2021/12/27 08:11:34;;;;;;;75.37;38.83;;;;;;;1.45;88.56;95044.83;1789351;80;21538;-61
2021/12/27 08:14:01;;;;;;;52.10;30.43;;;;;;;1.40;88.62;95040.47;1789496;80;20993;-61
2021/12/27 08:16:28;;;;;;;57.30;32.30;;;;;;;1.38;88.75;95043.48;1789297;80;21534;-61
2021/12/27 08:18:56;;;;;;;133.43;80.20;;;;;;;1.32;89.29;95052.54;1789281;80;21519;-61
2021/12/27 08:21:25;;;;;;;248.07;131.20;;;;;;;1.27;89.35;95047.30;1789413;80;21028;-61
2021/12/27 08:23:53;;;;;;;255.70;166.93;;;;;;;1.28;89.52;95048.59;1789422;80;21012;-61
2021/12/27 08:26:20;;;;;;;66.17;37.43;;;;;;;1.31;89.24;95047.78;1789289;80;20969;-61
2021/12/27 08:28:51;;;;;;;47.47;24.00;;;;;;;1.30;89.25;95043.42;1789519;80;21041;-61
2021/12/27 08:31:18;;;;;;;50.47;30.17;;;;;;;1.29;89.23;95050.79;1789182;80;21037;-61
2021/12/27 08:33:44;;;;;;;47.13;21.67;;;;;;;1.28;89.28;95045.13;1789286;80;21044;-61
2021/12/27 08:36:11;;;;;;;46.73;21.70;;;;;;;1.27;89.82;95046.00;1789022;80;21017;-61
2021/12/27 08:38:38;;;;;;;49.17;25.87;;;;;;;1.30;89.73;95046.02;1789382;80;21045;-61
2021/12/27 08:41:05;;;;;;;50.37;24.67;;;;;;;1.29;89.68;95041.25;1789364;80;21017;-61
2021/12/27 08:43:31;;;;;;;35.30;19.70;;;;;;;1.29;89.83;95038.66;1789391;80;21010;-61
2021/12/27 08:45:59;;;;;;;27.53;15.00;;;;;;;1.36;89.81;95037.39;1789236;80;20946;-61
2021/12/27 08:48:26;;;;;;;46.93;29.80;;;;;;;1.44;89.80;95039.64;1789133;80;21108;-61
2021/12/27 08:50:52;;;;;;;53.57;40.33;;;;;;;1.53;89.82;95034.48;1789325;80;21051;-61
2021/12/27 08:53:19;;;;;;;84.67;53.77;;;;;;;1.53;89.28;95033.63;1788995;80;20986;-61
2021/12/27 08:55:45;;;;;;;40.47;27.57;;;;;;;1.53;89.23;95034.92;1789451;80;20992;-61
2021/12/27 08:58:12;;;;;;;43.97;29.23;;;;;;;1.47;89.23;95035.32;1785923;80;20982;-61
2021/12/27 09:00:38;;;;;;;182.53;110.60;;;;;;;1.49;89.16;95032.75;1771755;81;21571;-61
2021/12/27 09:03:05;;;;;;;54.93;32.07;;;;;;;1.47;89.24;95033.16;1772529;81;21005;-61
2021/12/27 09:05:32;;;;;;;54.73;30.70;;;;;;;1.48;89.31;95031.85;1772222;81;20998;-61
2021/12/27 09:07:58;;;;;;;31.33;18.27;;;;;;;1.53;89.42;95029.28;1772096;81;21504;-61
2021/12/27 09:10:24;;;;;;;17.47;12.10;;;;;;;1.58;89.71;95021.09;1772520;81;21038;-61
2021/12/27 09:12:51;;;;;;;14.57;10.27;;;;;;;1.65;89.76;95012.47;1772435;81;20998;-61
2021/12/27 09:15:17;;;;;;;15.07;9.17;;;;;;;1.68;89.65;95005.98;1772138;81;21476;-61
2021/12/27 09:17:45;;;;;;;16.77;10.77;;;;;;;1.76;89.68;95007.33;1772345;81;21041;-61
2021/12/27 09:20:13;;;;;;;23.30;14.33;;;;;;;1.89;89.94;94999.16;1772217;81;21002;-61
2021/12/27 09:22:41;;;;;;;16.97;10.20;;;;;;;1.96;89.62;94990.53;1772209;81;21541;-61
2021/12/27 09:25:08;;;;;;;13.93;8.50;;;;;;;2.00;89.38;94990.12;1772251;81;21037;-61
2021/12/27 09:27:35;;;;;;;10.87;6.50;;;;;;;2.06;89.37;94987.54;1772388;81;21053;-61
2021/12/27 09:30:05;;;;;;;9.63;6.40;;;;;;;2.13;89.36;94986.27;1772098;81;21002;-61
2021/12/27 09:32:31;;;;;;;14.67;7.80;;;;;;;2.20;89.13;94985.01;1772244;81;21018;-61
2021/12/27 09:34:58;;;;;;;10.40;6.47;;;;;;;2.26;89.17;94977.20;1772296;81;20966;-61
2021/12/27 09:37:26;;;;;;;12.17;6.57;;;;;;;2.32;88.95;94974.20;1772141;81;21046;-61
2021/12/27 09:39:56;;;;;;;7.20;5.30;;;;;;;2.31;88.00;94971.58;1772306;81;21495;-61
2021/12/27 09:42:25;;;;;;;10.03;7.13;;;;;;;2.26;87.72;94967.66;1772346;81;20998;-61
2021/12/27 09:44:55;;;;;;;9.90;6.80;;;;;;;2.28;87.71;94965.94;1771757;81;21078;-61
2021/12/27 09:47:22;;;;;;;9.63;6.20;;;;;;;2.23;86.99;94973.30;1772353;80;21002;-61
2021/12/27 09:49:50;;;;;;;9.47;5.57;;;;;;;2.21;87.60;94964.61;1772096;81;21463;-61
2021/12/27 09:52:17;;;;;;;9.20;4.70;;;;;;;2.29;88.18;94965.09;1772170;81;20982;-61
2021/12/27 09:54:47;;;;;;;7.17;4.93;;;;;;;2.28;87.55;94958.13;1772267;81;21535;-61
2021/12/27 09:57:15;;;;;;;8.30;6.43;;;;;;;2.31;87.57;94954.22;1772162;81;21799;-61
2021/12/27 09:59:42;;;;;;;6.20;5.17;;;;;;;2.31;87.44;94949.02;1771862;80;21501;-61
2021/12/27 10:02:11;;;;;;;29.60;22.10;;;;;;;2.26;87.19;94953.34;1772313;81;20997;-61
2021/12/27 10:04:38;;;;;;;22.07;17.83;;;;;;;2.24;87.35;94944.66;1772097;81;21006;-61
2021/12/27 10:07:04;;;;;;;12.57;8.57;;;;;;;2.26;87.43;94950.73;1772317;81;20998;-60
2021/12/27 10:09:34;;;;;;;7.27;6.00;;;;;;;2.32;87.62;94945.56;1772288;81;21002;-61
2021/12/27 10:12:06;;;;;;;12.23;8.57;;;;;;;2.34;87.29;94942.95;1772468;81;21014;-61
2021/12/27 10:14:34;;;;;;;11.23;7.90;;;;;;;2.31;86.97;94937.73;1772013;81;20995;-61
2021/12/27 10:17:10;;;;;;;12.93;8.07;;;;;;;2.30;86.70;94936.02;1772517;81;21016;-61
2021/12/27 10:19:38;;;;;;;13.30;10.17;;;;;;;2.31;87.03;94932.09;1772126;81;20998;-61
2021/12/27 10:22:11;;;;;;;20.40;12.70;;;;;;;2.36;87.06;94928.20;1772317;81;21483;-61
2021/12/27 10:24:39;;;;;;;8.53;6.58;;;;;;;2.47;87.38;94926.52;1772462;81;20994;-61
2021/12/27 10:27:06;;;;;;;8.03;5.70;;;;;;;2.50;87.29;94923.91;1772200;80;21045;-61
2021/12/27 10:29:36;;;;;;;6.30;4.80;;;;;;;2.57;87.54;94924.77;1772078;80;20974;-61
2021/12/27 10:32:16;;;;;;;7.20;5.00;;;;;;;2.67;87.87;94921.73;1772253;81;21026;-61
2021/12/27 10:34:50;;;;;;;5.53;4.10;;;;;;;2.71;87.65;94921.75;1772492;81;20994;-61
2021/12/27 10:37:29;;;;;;;5.87;4.57;;;;;;;2.66;87.03;94916.97;1772255;81;20982;-61
2021/12/27 10:40:02;;;;;;;5.20;4.00;;;;;;;2.62;86.91;94915.66;1772152;81;21062;-61
2021/12/27 10:42:48;;;;;;;6.60;4.50;;;;;;;2.62;87.17;94910.45;1772462;81;21005;-61
2021/12/27 10:45:16;;;;;;;5.80;4.53;;;;;;;2.64;87.48;94911.33;1771088;81;21496;-61
2021/12/27 10:47:49;;;;;;;5.40;4.10;;;;;;;2.65;87.49;94907.44;1772211;81;21006;-61
2021/12/27 10:50:23;;;;;;;6.17;4.95;;;;;;;2.58;87.17;94908.28;1772365;81;21021;-61
2021/12/27 10:53:05;;;;;;;6.95;4.70;;;;;;;2.56;87.32;94904.37;1772325;81;20994;-62
2021/12/27 10:55:43;;;;;;;6.47;4.45;;;;;;;2.55;87.45;94905.25;1771522;81;21014;-61
2021/12/27 10:58:23;;;;;;;6.47;4.60;;;;;;;2.66;87.85;94904.39;1772331;81;21058;-59
2021/12/27 11:00:57;;;;;;;6.13;4.57;;;;;;;2.62;87.38;94897.42;1772173;81;21105;-59
2021/12/27 11:03:43;;;;;;;5.83;4.40;;;;;;;2.56;87.27;94897.86;1772472;81;21002;-60
2021/12/27 11:06:14;;;;;;;4.83;4.03;;;;;;;2.55;87.33;94897.88;1772455;81;20970;-61
2021/12/27 11:08:44;;;;;;;6.40;4.27;;;;;;;2.54;87.45;94900.03;1772391;81;21022;-61
2021/12/27 11:11:12;;;;;;;7.33;4.67;;;;;;;2.49;87.27;94897.41;1772453;81;21000;-61
2021/12/27 11:13:41;;;;;;;5.97;4.17;;;;;;;2.45;87.27;94896.13;1772458;81;21054;-62
2021/12/27 11:16:08;;;;;;;5.20;3.83;;;;;;;2.40;87.43;94893.52;1772162;81;21041;-61
2021/12/27 11:18:35;;;;;;;5.13;3.83;;;;;;;2.45;87.81;94887.02;1772616;81;20978;-61
2021/12/27 11:21:12;;;;;;;4.90;3.73;;;;;;;2.48;87.73;94888.31;1772435;81;20986;-62
2021/12/27 11:23:41;;;;;;;4.80;3.63;;;;;;;2.47;87.60;94882.66;1772349;81;20963;-61
2021/12/27 11:26:12;;;;;;;5.73;3.90;;;;;;;2.51;87.83;94885.27;1772366;81;21045;-61
2021/12/27 11:28:42;;;;;;;4.93;3.57;;;;;;;2.54;87.67;94880.49;1771905;81;21029;-61
2021/12/27 11:31:26;;;;;;;20.27;10.17;;;;;;;2.56;87.82;94873.56;1771646;81;21065;-61
2021/12/27 11:33:56;;;;;;;;;;;;;;;2.60;87.65;94876.61;1775409;81;21052;-61
2021/12/27 11:36:26;;;;;;;29.93;15.53;;;;;;;2.55;87.13;94877.05;1759050;80;20146;-61
2021/12/27 11:38:54;;;;;;;7.43;6.63;;;;;;;2.47;87.25;94867.92;1754616;81;21010;-61